createdAt,value
2019-03-17T00:00:15.560Z,311.01
2019-03-17T00:01:15.528Z,310.85
2019-03-17T00:02:15.481Z,311.28
2019-03-17T00:03:15.474Z,311.09
2019-03-17T00:04:15.453Z,310.83
2019-03-17T00:05:15.446Z,310.37
2019-03-17T00:06:15.470Z,310.97
2019-03-17T00:07:15.446Z,310.90
2019-03-17T00:08:15.475Z,311.09
2019-03-17T00:09:15.409Z,311.11
2019-03-17T00:10:15.400Z,310.60
2019-03-17T00:11:15.477Z,311.55
2019-03-17T00:12:16.360Z,310.93
2019-03-17T00:13:17.606Z,311.07
2019-03-17T00:14:15.386Z,311.05
2019-03-17T00:15:15.765Z,311.27
2019-03-17T00:16:15.514Z,311.10
2019-03-17T00:17:15.604Z,310.76
2019-03-17T00:18:15.311Z,311.26
2019-03-17T00:19:15.299Z,311.12
2019-03-17T00:20:15.288Z,311.02
2019-03-17T00:21:15.305Z,311.05
2019-03-17T00:22:15.258Z,311.35
2019-03-17T00:23:15.246Z,311.27
2019-03-17T00:24:15.237Z,310.67
2019-03-17T00:25:15.252Z,311.09
2019-03-17T00:26:15.221Z,311.06
2019-03-17T00:27:15.226Z,310.97
2019-03-17T00:28:15.214Z,310.90
2019-03-17T00:29:15.211Z,311.19
2019-03-17T00:30:15.169Z,311.24
2019-03-17T00:31:23.917Z,310.86
2019-03-17T00:32:16.167Z,310.85
2019-03-17T00:33:15.161Z,310.45
2019-03-17T00:34:15.159Z,310.74
2019-03-17T00:35:15.120Z,310.77
2019-03-17T00:36:15.100Z,310.61
2019-03-17T00:37:15.090Z,310.86
2019-03-17T00:38:15.101Z,310.49
2019-03-17T00:39:15.081Z,310.83
2019-03-17T00:40:15.138Z,310.74
2019-03-17T00:41:15.109Z,310.64
2019-03-17T00:42:15.179Z,310.38
2019-03-17T00:43:15.033Z,310.53
2019-03-17T00:44:15.031Z,310.33
2019-03-17T00:45:15.007Z,310.68
2019-03-17T00:46:15.020Z,310.52
2019-03-17T00:47:14.998Z,310.42
2019-03-17T00:48:14.975Z,310.01
2019-03-17T00:49:14.968Z,310.77
2019-03-17T00:50:14.967Z,310.46
2019-03-17T00:51:14.970Z,310.24
2019-03-17T00:52:14.982Z,310.75
2019-03-17T00:53:14.936Z,310.40
2019-03-17T00:54:15.005Z,310.15
2019-03-17T00:55:14.923Z,310.55
2019-03-17T00:56:15.370Z,309.87
2019-03-17T00:57:15.502Z,309.86
2019-03-17T00:58:14.902Z,310.37
2019-03-17T00:59:14.864Z,310.71
2019-03-17T01:00:14.846Z,310.48
2019-03-17T01:01:14.839Z,310.48
2019-03-17T01:02:14.816Z,310.53
2019-03-17T01:03:14.824Z,309.94
2019-03-17T01:04:14.809Z,310.54
2019-03-17T01:05:14.801Z,309.87
2019-03-17T01:06:14.780Z,310.98
2019-03-17T01:07:14.769Z,310.45
2019-03-17T01:08:14.778Z,310.39
2019-03-17T01:09:14.772Z,310.88
2019-03-17T01:10:14.740Z,310.64
2019-03-17T01:11:14.744Z,310.70
2019-03-17T01:12:14.735Z,311.00
2019-03-17T01:13:14.715Z,310.73
2019-03-17T01:14:14.694Z,310.60
2019-03-17T01:15:14.673Z,309.82
2019-03-17T01:16:14.663Z,310.48
2019-03-17T01:17:14.710Z,310.00
2019-03-17T01:18:14.654Z,310.29
2019-03-17T01:19:14.697Z,310.40
2019-03-17T01:20:14.623Z,310.18
2019-03-17T01:21:14.609Z,310.33
2019-03-17T01:22:14.610Z,310.04
2019-03-17T01:23:14.599Z,310.09
2019-03-17T01:24:14.583Z,310.40
2019-03-17T01:25:14.597Z,310.35
2019-03-17T01:26:14.555Z,310.84
2019-03-17T01:27:14.551Z,310.39
2019-03-17T01:28:14.530Z,310.55
2019-03-17T01:29:14.561Z,310.59
2019-03-17T01:30:14.522Z,310.00
2019-03-17T01:31:14.508Z,310.40
2019-03-17T01:32:14.506Z,310.33
2019-03-17T01:33:14.487Z,310.66
2019-03-17T01:34:14.465Z,309.82
2019-03-17T01:35:14.471Z,309.86
2019-03-17T01:36:14.461Z,310.15
2019-03-17T01:37:14.451Z,310.57
2019-03-17T01:38:14.414Z,310.14
2019-03-17T01:39:14.424Z,310.23
2019-03-17T01:40:14.406Z,310.75
2019-03-17T01:41:14.388Z,310.43
2019-03-17T01:42:14.393Z,310.50
2019-03-17T01:43:14.373Z,310.02
2019-03-17T01:44:14.382Z,310.81
2019-03-17T01:45:14.344Z,310.58
2019-03-17T01:46:14.333Z,309.58
2019-03-17T01:47:14.326Z,310.19
2019-03-17T01:48:14.311Z,310.31
2019-03-17T01:49:14.333Z,310.53
2019-03-17T01:50:14.292Z,310.19
2019-03-17T01:51:14.284Z,310.18
2019-03-17T01:52:14.264Z,309.45
2019-03-17T01:53:14.262Z,310.00
2019-03-17T01:54:14.263Z,309.51
2019-03-17T01:55:14.261Z,310.58
2019-03-17T01:56:14.228Z,310.45
2019-03-17T01:57:14.218Z,309.91
2019-03-17T01:58:14.201Z,310.52
2019-03-17T01:59:14.194Z,310.59
2019-03-17T02:00:14.200Z,310.44
2019-03-17T02:01:14.185Z,310.68
2019-03-17T02:02:14.189Z,309.88
2019-03-17T02:03:14.154Z,310.12
2019-03-17T02:04:14.144Z,310.53
2019-03-17T02:05:21.956Z,310.36
2019-03-17T02:06:15.104Z,310.28
2019-03-17T02:07:14.124Z,310.32
2019-03-17T02:08:14.095Z,310.70
2019-03-17T02:09:14.095Z,310.32
2019-03-17T02:10:14.068Z,310.39
2019-03-17T02:11:14.054Z,310.21
2019-03-17T02:12:14.080Z,310.16
2019-03-17T02:13:14.063Z,310.10
2019-03-17T02:14:14.034Z,310.02
2019-03-17T02:15:14.030Z,310.39
2019-03-17T02:16:14.023Z,310.16
2019-03-17T02:17:14.003Z,310.03
2019-03-17T02:18:14.028Z,311.11
2019-03-17T02:19:13.965Z,310.84
2019-03-17T02:20:13.956Z,310.20
2019-03-17T02:21:13.944Z,310.53
2019-03-17T02:22:13.948Z,310.18
2019-03-17T02:23:13.930Z,309.65
2019-03-17T02:24:13.951Z,309.72
2019-03-17T02:25:13.898Z,309.25
2019-03-17T02:26:13.906Z,309.73
2019-03-17T02:27:13.898Z,310.98
2019-03-17T02:28:13.893Z,310.22
2019-03-17T02:29:13.871Z,310.28
2019-03-17T02:30:13.874Z,310.72
2019-03-17T02:31:13.845Z,310.73
2019-03-17T02:32:13.834Z,309.76
2019-03-17T02:33:13.815Z,310.54
2019-03-17T02:34:13.838Z,310.45
2019-03-17T02:35:13.828Z,310.49
2019-03-17T02:36:13.806Z,310.27
2019-03-17T02:37:13.779Z,310.59
2019-03-17T02:38:13.762Z,310.11
2019-03-17T02:39:13.754Z,310.71
2019-03-17T02:40:13.778Z,310.37
2019-03-17T02:41:13.759Z,310.27
2019-03-17T02:42:13.722Z,310.71
2019-03-17T02:43:13.703Z,310.49
2019-03-17T02:44:13.692Z,310.68
2019-03-17T02:45:13.741Z,310.12
2019-03-17T02:46:13.711Z,310.91
2019-03-17T02:47:13.682Z,310.23
2019-03-17T02:48:13.654Z,310.96
2019-03-17T02:49:13.652Z,310.19
2019-03-17T02:50:13.657Z,310.74
2019-03-17T02:51:13.626Z,309.84
2019-03-17T02:52:13.621Z,310.48
2019-03-17T02:53:13.606Z,310.42
2019-03-17T02:54:13.596Z,310.59
2019-03-17T02:55:13.600Z,310.59
2019-03-17T02:56:13.562Z,310.57
2019-03-17T02:57:13.563Z,310.15
2019-03-17T02:58:13.559Z,310.19
2019-03-17T02:59:13.553Z,310.79
2019-03-17T03:00:13.555Z,310.10
2019-03-17T03:01:13.537Z,310.47
2019-03-17T03:02:13.507Z,310.41
2019-03-17T03:03:13.490Z,309.99
2019-03-17T03:04:13.490Z,310.32
2019-03-17T03:05:13.487Z,310.78
2019-03-17T03:06:13.461Z,310.08
2019-03-17T03:07:13.454Z,309.28
2019-03-17T03:08:13.443Z,310.39
2019-03-17T03:09:13.432Z,309.95
2019-03-17T03:10:13.436Z,310.46
2019-03-17T03:11:13.402Z,310.53
2019-03-17T03:12:13.433Z,310.17
2019-03-17T03:13:13.414Z,309.60
2019-03-17T03:14:13.376Z,310.10
2019-03-17T03:15:13.390Z,310.22
2019-03-17T03:16:13.339Z,309.97
2019-03-17T03:17:13.334Z,310.53
2019-03-17T03:18:13.337Z,309.28
2019-03-17T03:19:13.320Z,310.20
2019-03-17T03:20:13.319Z,310.28
2019-03-17T03:21:13.322Z,310.59
2019-03-17T03:22:13.305Z,310.58
2019-03-17T03:23:13.265Z,309.81
2019-03-17T03:24:13.268Z,310.25
2019-03-17T03:25:13.259Z,309.66
2019-03-17T03:26:13.246Z,310.05
2019-03-17T03:27:13.244Z,310.10
2019-03-17T03:28:13.238Z,310.29
2019-03-17T03:29:13.209Z,310.43
2019-03-17T03:30:13.231Z,310.98
2019-03-17T03:31:13.200Z,309.48
2019-03-17T03:32:13.205Z,310.31
2019-03-17T03:33:13.176Z,310.22
2019-03-17T03:34:13.172Z,310.33
2019-03-17T03:35:13.138Z,310.53
2019-03-17T03:36:13.139Z,310.04
2019-03-17T03:37:13.121Z,310.09
2019-03-17T03:38:13.114Z,310.28
2019-03-17T03:39:13.116Z,310.29
2019-03-17T03:40:13.090Z,310.42
2019-03-17T03:41:13.100Z,310.08
2019-03-17T03:42:13.062Z,310.25
2019-03-17T03:43:13.055Z,309.67
2019-03-17T03:44:13.070Z,310.42
2019-03-17T03:45:13.044Z,310.98
2019-03-17T03:46:13.012Z,310.02
2019-03-17T03:47:13.015Z,310.00
2019-03-17T03:48:13.013Z,310.25
2019-03-17T03:49:12.981Z,310.50
2019-03-17T03:50:12.981Z,310.35
2019-03-17T03:51:12.985Z,310.38
2019-03-17T03:52:12.961Z,310.43
2019-03-17T03:53:12.973Z,310.05
2019-03-17T03:54:12.934Z,310.40
2019-03-17T03:55:12.914Z,310.51
2019-03-17T03:56:12.939Z,310.14
2019-03-17T03:57:12.898Z,310.18
2019-03-17T03:58:12.917Z,310.65
2019-03-17T03:59:12.870Z,310.66
2019-03-17T04:00:12.874Z,310.97
2019-03-17T04:01:12.863Z,310.38
2019-03-17T04:02:12.860Z,310.07
2019-03-17T04:03:12.884Z,310.76
2019-03-17T04:04:12.844Z,310.33
2019-03-17T04:05:12.818Z,310.65
2019-03-17T04:06:25.795Z,310.58
2019-03-17T04:07:13.783Z,310.34
2019-03-17T04:08:12.805Z,310.53
2019-03-17T04:09:12.766Z,310.61
2019-03-17T04:10:12.770Z,310.51
2019-03-17T04:11:12.751Z,310.54
2019-03-17T04:12:12.746Z,310.36
2019-03-17T04:13:12.773Z,310.99
2019-03-17T04:14:12.700Z,310.94
2019-03-17T04:15:12.698Z,310.82
2019-03-17T04:16:12.688Z,310.72
2019-03-17T04:17:12.680Z,310.87
2019-03-17T04:18:12.661Z,310.07
2019-03-17T04:19:12.668Z,310.72
2019-03-17T04:20:12.680Z,310.30
2019-03-17T04:21:12.635Z,311.05
2019-03-17T04:22:12.629Z,310.86
2019-03-17T04:23:12.629Z,310.91
2019-03-17T04:24:12.604Z,310.69
2019-03-17T04:25:12.608Z,310.90
2019-03-17T04:26:12.580Z,310.92
2019-03-17T04:27:12.558Z,310.69
2019-03-17T04:28:12.595Z,310.64
2019-03-17T04:29:12.562Z,310.86
2019-03-17T04:30:12.545Z,310.78
2019-03-17T04:31:14.544Z,310.72
2019-03-17T04:32:12.512Z,310.95
2019-03-17T04:33:12.501Z,310.80
2019-03-17T04:34:12.516Z,310.82
2019-03-17T04:35:12.503Z,310.85
2019-03-17T04:36:12.474Z,310.87
2019-03-17T04:37:12.465Z,311.45
2019-03-17T04:38:12.443Z,310.84
2019-03-17T04:39:12.464Z,311.10
2019-03-17T04:40:12.421Z,311.05
2019-03-17T04:41:12.406Z,310.95
2019-03-17T04:42:12.442Z,311.09
2019-03-17T04:43:12.409Z,310.92
2019-03-17T04:44:20.728Z,310.48
2019-03-17T04:45:13.404Z,310.81
2019-03-17T04:46:12.363Z,311.17
2019-03-17T04:47:12.344Z,311.02
2019-03-17T04:48:12.347Z,310.70
2019-03-17T04:49:12.347Z,310.66
2019-03-17T04:50:12.332Z,310.58
2019-03-17T04:51:12.343Z,311.19
2019-03-17T04:52:12.288Z,310.89
2019-03-17T04:53:12.279Z,310.95
2019-03-17T04:54:12.285Z,311.02
2019-03-17T04:55:12.283Z,311.35
2019-03-17T04:56:12.256Z,311.26
2019-03-17T04:57:12.245Z,310.85
2019-03-17T04:58:12.225Z,310.77
2019-03-17T04:59:12.212Z,310.67
2019-03-17T05:00:12.229Z,311.11
2019-03-17T05:01:12.199Z,310.92
2019-03-17T05:02:13.592Z,310.58
2019-03-17T05:03:12.175Z,311.10
2019-03-17T05:04:12.152Z,311.50
2019-03-17T05:05:12.156Z,311.32
2019-03-17T05:06:12.161Z,311.23
2019-03-17T05:07:12.133Z,311.79
2019-03-17T05:08:12.124Z,311.67
2019-03-17T05:09:12.113Z,311.43
2019-03-17T05:10:12.110Z,311.27
2019-03-17T05:11:12.101Z,311.48
2019-03-17T05:12:12.071Z,310.75
2019-03-17T05:13:12.071Z,310.69
2019-03-17T05:14:12.055Z,311.30
2019-03-17T05:15:12.056Z,311.30
2019-03-17T05:16:12.061Z,311.27
2019-03-17T05:17:12.029Z,311.15
2019-03-17T05:18:11.997Z,310.84
2019-03-17T05:19:11.993Z,311.21
2019-03-17T05:20:11.986Z,310.83
2019-03-17T05:21:12.019Z,311.56
2019-03-17T05:22:11.958Z,311.12
2019-03-17T05:23:11.944Z,311.59
2019-03-17T05:24:11.933Z,311.27
2019-03-17T05:25:11.924Z,311.09
2019-03-17T05:26:11.922Z,310.99
2019-03-17T05:27:11.944Z,310.92
2019-03-17T05:28:11.897Z,311.53
2019-03-17T05:29:11.896Z,310.58
2019-03-17T05:30:11.877Z,311.49
2019-03-17T05:31:11.878Z,310.91
2019-03-17T05:32:11.858Z,311.01
2019-03-17T05:33:11.868Z,310.76
2019-03-17T05:34:11.835Z,311.57
2019-03-17T05:35:11.819Z,311.25
2019-03-17T05:36:11.813Z,310.64
2019-03-17T05:37:11.822Z,310.88
2019-03-17T05:38:11.839Z,311.45
2019-03-17T05:39:11.771Z,311.58
2019-03-17T05:40:11.763Z,311.08
2019-03-17T05:41:11.745Z,311.36
2019-03-17T05:42:11.750Z,311.50
2019-03-17T05:43:11.770Z,311.29
2019-03-17T05:44:11.725Z,310.93
2019-03-17T05:45:11.716Z,311.19
2019-03-17T05:46:11.698Z,311.01
2019-03-17T05:47:11.691Z,311.19
2019-03-17T05:48:11.680Z,310.87
2019-03-17T05:49:11.688Z,311.76
2019-03-17T05:50:11.662Z,311.64
2019-03-17T05:51:11.661Z,311.21
2019-03-17T05:52:11.636Z,311.87
2019-03-17T05:53:11.612Z,311.32
2019-03-17T05:54:11.650Z,311.14
2019-03-17T05:55:11.633Z,311.21
2019-03-17T05:56:11.610Z,311.61
2019-03-17T05:57:11.588Z,311.61
2019-03-17T05:58:11.565Z,311.77
2019-03-17T05:59:11.587Z,310.98
2019-03-17T06:00:11.546Z,311.38
2019-03-17T06:01:11.550Z,311.35
2019-03-17T06:02:11.532Z,311.21
2019-03-17T06:03:11.523Z,310.91
2019-03-17T06:04:11.554Z,311.06
2019-03-17T06:05:11.526Z,311.60
2019-03-17T06:06:11.478Z,311.20
2019-03-17T06:07:18.577Z,311.48
2019-03-17T06:08:12.457Z,311.19
2019-03-17T06:09:11.461Z,311.83
2019-03-17T06:10:11.455Z,310.79
2019-03-17T06:11:11.417Z,310.35
2019-03-17T06:12:11.420Z,311.65
2019-03-17T06:13:11.404Z,311.01
2019-03-17T06:14:11.393Z,310.88
2019-03-17T06:15:11.455Z,311.40
2019-03-17T06:16:11.376Z,310.85
2019-03-17T06:17:11.368Z,311.10
2019-03-17T06:18:11.339Z,310.95
2019-03-17T06:19:11.329Z,310.81
2019-03-17T06:20:11.328Z,311.49
2019-03-17T06:21:11.335Z,311.07
2019-03-17T06:22:11.307Z,310.78
2019-03-17T06:23:11.302Z,311.56
2019-03-17T06:24:11.282Z,311.23
2019-03-17T06:25:11.267Z,311.56
2019-03-17T06:26:11.279Z,311.04
2019-03-17T06:27:11.281Z,311.36
2019-03-17T06:28:11.236Z,310.88
2019-03-17T06:29:11.227Z,311.17
2019-03-17T06:30:11.215Z,310.97
2019-03-17T06:31:11.197Z,311.24
2019-03-17T06:32:11.189Z,310.71
2019-03-17T06:33:11.227Z,311.48
2019-03-17T06:34:11.173Z,311.48
2019-03-17T06:35:11.263Z,311.30
2019-03-17T06:36:11.158Z,310.59
2019-03-17T06:37:11.165Z,311.06
2019-03-17T06:38:11.130Z,310.58
2019-03-17T06:39:11.128Z,310.87
2019-03-17T06:40:11.111Z,311.00
2019-03-17T06:41:11.098Z,310.88
2019-03-17T06:42:11.087Z,309.98
2019-03-17T06:43:11.087Z,310.22
2019-03-17T06:44:11.079Z,311.05
2019-03-17T06:45:11.043Z,311.26
2019-03-17T06:46:11.056Z,310.73
2019-03-17T06:47:11.054Z,310.62
2019-03-17T06:48:11.031Z,310.29
2019-03-17T06:49:11.026Z,310.92
2019-03-17T06:50:10.996Z,310.73
2019-03-17T06:51:10.979Z,310.87
2019-03-17T06:52:10.989Z,311.13
2019-03-17T06:53:10.964Z,310.81
2019-03-17T06:54:10.958Z,311.43
2019-03-17T06:55:10.945Z,311.15
2019-03-17T06:56:10.921Z,310.77
2019-03-17T06:57:10.907Z,311.13
2019-03-17T06:58:10.931Z,310.34
2019-03-17T06:59:10.906Z,310.73
2019-03-17T07:00:10.892Z,310.88
2019-03-17T07:01:10.881Z,310.60
2019-03-17T07:02:10.849Z,311.19
2019-03-17T07:03:10.844Z,311.02
2019-03-17T07:04:10.867Z,311.85
2019-03-17T07:05:10.830Z,311.09
2019-03-17T07:06:10.840Z,311.11
2019-03-17T07:07:10.817Z,311.08
2019-03-17T07:08:10.799Z,310.79
2019-03-17T07:09:10.787Z,310.67
2019-03-17T07:10:10.782Z,311.18
2019-03-17T07:11:11.201Z,311.21
2019-03-17T07:12:10.763Z,311.51
2019-03-17T07:13:10.756Z,311.64
2019-03-17T07:14:10.723Z,311.05
2019-03-17T07:15:10.734Z,311.47
2019-03-17T07:16:10.708Z,311.66
2019-03-17T07:17:10.693Z,312.18
2019-03-17T07:18:10.691Z,311.56
2019-03-17T07:19:10.669Z,312.74
2019-03-17T07:20:10.687Z,312.18
2019-03-17T07:21:10.654Z,311.63
2019-03-17T07:22:10.639Z,312.30
2019-03-17T07:23:10.622Z,311.77
2019-03-17T07:24:10.624Z,311.28
2019-03-17T07:25:10.616Z,310.27
2019-03-17T07:26:10.607Z,311.55
2019-03-17T07:27:10.596Z,311.61
2019-03-17T07:28:10.576Z,310.96
2019-03-17T07:29:10.559Z,310.12
2019-03-17T07:30:10.585Z,311.82
2019-03-17T07:31:10.546Z,311.29
2019-03-17T07:32:10.535Z,311.78
2019-03-17T07:33:10.531Z,311.67
2019-03-17T07:34:10.501Z,311.08
2019-03-17T07:35:10.517Z,311.88
2019-03-17T07:36:10.501Z,311.70
2019-03-17T07:37:10.471Z,312.09
2019-03-17T07:38:10.539Z,311.25
2019-03-17T07:39:11.965Z,311.37
2019-03-17T07:40:10.450Z,311.49
2019-03-17T07:41:10.446Z,312.17
2019-03-17T07:42:10.447Z,311.73
2019-03-17T07:43:10.409Z,311.45
2019-03-17T07:44:10.398Z,312.12
2019-03-17T07:45:10.393Z,311.40
2019-03-17T07:46:10.376Z,312.63
2019-03-17T07:47:10.368Z,312.75
2019-03-17T07:48:10.393Z,312.86
2019-03-17T07:49:10.350Z,310.84
2019-03-17T07:50:10.332Z,312.12
2019-03-17T07:51:10.336Z,311.07
2019-03-17T07:52:10.325Z,312.15
2019-03-17T07:53:10.309Z,311.09
2019-03-17T07:54:10.312Z,313.17
2019-03-17T07:55:10.304Z,311.92
2019-03-17T07:56:10.265Z,313.31
2019-03-17T07:57:10.250Z,313.38
2019-03-17T07:58:10.253Z,313.76
2019-03-17T07:59:10.229Z,313.22
2019-03-17T08:00:10.237Z,312.04
2019-03-17T08:01:10.203Z,313.16
2019-03-17T08:02:10.220Z,311.16
2019-03-17T08:03:10.197Z,312.42
2019-03-17T08:04:10.195Z,311.81
2019-03-17T08:05:10.198Z,311.81
2019-03-17T08:06:10.167Z,312.50
2019-03-17T08:07:10.139Z,311.21
2019-03-17T08:08:10.166Z,311.51
2019-03-17T08:09:10.118Z,311.02
2019-03-17T08:10:10.130Z,313.41
2019-03-17T08:11:10.132Z,311.91
2019-03-17T08:12:10.092Z,312.66
2019-03-17T08:13:10.078Z,311.60
2019-03-17T08:14:10.072Z,309.79
2019-03-17T08:15:10.059Z,312.34
2019-03-17T08:16:10.066Z,311.51
2019-03-17T08:17:10.070Z,308.18
2019-03-17T08:18:10.031Z,311.54
2019-03-17T08:19:10.011Z,312.47
2019-03-17T08:20:09.993Z,313.58
2019-03-17T08:21:09.982Z,314.59
2019-03-17T08:22:10.010Z,313.23
2019-03-17T08:23:09.974Z,312.81
2019-03-17T08:24:09.961Z,314.34
2019-03-17T08:25:09.958Z,311.97
2019-03-17T08:26:09.922Z,312.81
2019-03-17T08:27:09.922Z,316.83
2019-03-17T08:28:09.922Z,306.12
2019-03-17T08:29:09.897Z,307.51
2019-03-17T08:30:09.894Z,306.27
2019-03-17T08:31:10.208Z,306.47
2019-03-17T08:32:09.862Z,306.46
2019-03-17T08:33:09.871Z,310.70
2019-03-17T08:34:09.859Z,306.77
2019-03-17T08:35:09.856Z,311.31
2019-03-17T08:36:09.838Z,304.54
2019-03-17T08:37:09.823Z,309.30
2019-03-17T08:38:21.240Z,307.19
2019-03-17T08:39:10.832Z,311.25
2019-03-17T08:40:09.778Z,307.52
2019-03-17T08:41:09.765Z,305.33
2019-03-17T08:42:09.761Z,305.93
2019-03-17T08:43:09.749Z,310.83
2019-03-17T08:44:09.743Z,304.98
2019-03-17T08:45:09.774Z,304.36
2019-03-17T08:46:09.706Z,305.29
2019-03-17T08:47:09.699Z,306.97
2019-03-17T08:48:09.705Z,308.78
2019-03-17T08:49:09.685Z,307.71
2019-03-17T08:50:09.686Z,305.45
2019-03-17T08:51:09.690Z,308.57
2019-03-17T08:52:09.639Z,301.98
2019-03-17T08:53:09.632Z,303.26
2019-03-17T08:54:09.642Z,302.43
2019-03-17T08:55:09.614Z,302.99
2019-03-17T08:56:09.642Z,305.10
2019-03-17T08:57:09.598Z,312.42
2019-03-17T08:58:09.580Z,307.47
2019-03-17T08:59:09.580Z,303.46
2019-03-17T09:00:09.581Z,305.64
2019-03-17T09:01:09.592Z,304.71
2019-03-17T09:02:09.559Z,307.79
2019-03-17T09:03:09.537Z,312.38
2019-03-17T09:04:10.480Z,302.84
2019-03-17T09:05:09.586Z,307.48
2019-03-17T09:06:09.525Z,306.25
2019-03-17T09:07:09.501Z,308.75
2019-03-17T09:08:09.492Z,307.13
2019-03-17T09:09:09.479Z,307.20
2019-03-17T09:10:09.453Z,306.81
2019-03-17T09:11:09.456Z,305.94
2019-03-17T09:12:09.447Z,307.75
2019-03-17T09:13:09.434Z,315.54
2019-03-17T09:14:09.420Z,311.76
2019-03-17T09:15:09.412Z,313.12
2019-03-17T09:16:09.421Z,307.98
2019-03-17T09:17:14.182Z,309.62
2019-03-17T09:18:10.442Z,305.87
2019-03-17T09:19:09.365Z,310.18
2019-03-17T09:20:09.353Z,307.57
2019-03-17T09:21:09.366Z,313.15
2019-03-17T09:22:09.322Z,306.23
2019-03-17T09:23:09.307Z,308.26
2019-03-17T09:24:17.108Z,310.15
2019-03-17T09:25:10.287Z,312.95
2019-03-17T09:26:09.326Z,307.43
2019-03-17T09:27:09.276Z,309.63
2019-03-17T09:28:09.263Z,305.50
2019-03-17T09:29:09.280Z,305.30
2019-03-17T09:30:09.261Z,309.81
2019-03-17T09:31:09.228Z,308.96
2019-03-17T09:32:09.234Z,310.27
2019-03-17T09:33:09.203Z,306.66
2019-03-17T09:34:09.195Z,302.80
2019-03-17T09:35:09.205Z,309.10
2019-03-17T09:36:09.170Z,305.31
2019-03-17T09:37:09.158Z,304.04
2019-03-17T09:38:09.200Z,308.92
2019-03-17T09:39:09.154Z,305.50
2019-03-17T09:40:09.142Z,307.42
2019-03-17T09:41:09.134Z,305.90
2019-03-17T09:42:11.168Z,306.49
2019-03-17T09:43:09.128Z,307.85
2019-03-17T09:44:09.104Z,310.57
2019-03-17T09:45:09.075Z,307.81
2019-03-17T09:46:09.075Z,299.27
2019-03-17T09:47:09.077Z,302.50
2019-03-17T09:48:09.049Z,304.95
2019-03-17T09:49:09.063Z,303.21
2019-03-17T09:50:09.028Z,304.60
2019-03-17T09:51:09.033Z,305.94
2019-03-17T09:52:09.010Z,300.79
2019-03-17T09:53:09.009Z,298.73
2019-03-17T09:54:09.012Z,302.36
2019-03-17T09:55:08.979Z,307.70
2019-03-17T09:56:08.952Z,305.07
2019-03-17T09:57:08.939Z,300.70
2019-03-17T09:58:08.938Z,304.17
2019-03-17T09:59:08.950Z,304.17
2019-03-17T10:00:08.923Z,300.31
2019-03-17T10:01:08.922Z,304.08
2019-03-17T10:02:08.880Z,305.73
2019-03-17T10:03:08.869Z,304.36
2019-03-17T10:04:08.906Z,303.58
2019-03-17T10:05:08.859Z,308.41
2019-03-17T10:06:08.847Z,309.30
2019-03-17T10:07:08.831Z,305.12
2019-03-17T10:08:08.816Z,307.10
2019-03-17T10:09:08.848Z,307.48
2019-03-17T10:10:08.822Z,305.65
2019-03-17T10:11:10.669Z,310.58
2019-03-17T10:12:08.789Z,307.95
2019-03-17T10:13:08.879Z,307.22
2019-03-17T10:14:08.756Z,308.96
2019-03-17T10:15:08.776Z,307.54
2019-03-17T10:16:08.756Z,309.89
2019-03-17T10:17:08.734Z,310.32
2019-03-17T10:18:08.715Z,309.43
2019-03-17T10:19:08.713Z,305.60
2019-03-17T10:20:08.692Z,307.80
2019-03-17T10:21:08.683Z,309.96
2019-03-17T10:22:08.693Z,309.95
2019-03-17T10:23:08.658Z,309.05
2019-03-17T10:24:08.653Z,308.18
2019-03-17T10:25:08.635Z,310.05
2019-03-17T10:26:08.613Z,306.29
2019-03-17T10:27:08.616Z,307.10
2019-03-17T10:28:08.618Z,306.31
2019-03-17T10:29:08.592Z,311.89
2019-03-17T10:30:08.591Z,307.63
2019-03-17T10:31:08.589Z,310.84
2019-03-17T10:32:08.566Z,310.14
2019-03-17T10:33:08.564Z,308.19
2019-03-17T10:34:08.539Z,309.74
2019-03-17T10:35:08.519Z,310.04
2019-03-17T10:36:08.503Z,309.95
2019-03-17T10:37:08.515Z,308.57
2019-03-17T10:38:08.505Z,310.20
2019-03-17T10:39:12.650Z,308.98
2019-03-17T10:40:08.465Z,309.36
2019-03-17T10:41:08.462Z,309.15
2019-03-17T10:42:08.457Z,309.98
2019-03-17T10:43:08.451Z,308.36
2019-03-17T10:44:08.529Z,310.86
2019-03-17T10:45:08.412Z,309.99
2019-03-17T10:46:08.403Z,308.61
2019-03-17T10:47:08.411Z,311.02
2019-03-17T10:48:08.418Z,311.01
2019-03-17T10:49:08.367Z,311.48
2019-03-17T10:50:08.372Z,309.43
2019-03-17T10:51:08.388Z,312.67
2019-03-17T10:52:08.341Z,314.07
2019-03-17T10:53:08.333Z,310.62
2019-03-17T10:54:08.318Z,312.89
2019-03-17T10:55:08.290Z,309.82
2019-03-17T10:56:08.299Z,312.19
2019-03-17T10:57:08.287Z,310.33
2019-03-17T10:58:08.266Z,311.45
2019-03-17T10:59:08.288Z,311.75
2019-03-17T11:00:08.267Z,311.93
2019-03-17T11:01:08.243Z,311.00
2019-03-17T11:02:08.252Z,309.08
2019-03-17T11:03:08.219Z,311.25
2019-03-17T11:04:08.215Z,311.04
2019-03-17T11:05:08.188Z,310.98
2019-03-17T11:06:08.199Z,309.32
2019-03-17T11:07:08.185Z,311.65
2019-03-17T11:08:08.177Z,310.55
2019-03-17T11:09:08.151Z,308.69
2019-03-17T11:10:08.138Z,309.71
2019-03-17T11:11:08.157Z,311.70
2019-03-17T11:12:08.121Z,308.27
2019-03-17T11:13:08.120Z,310.64
2019-03-17T11:14:08.123Z,309.87
2019-03-17T11:15:08.087Z,310.54
2019-03-17T11:16:08.072Z,309.66
2019-03-17T11:17:08.069Z,309.25
2019-03-17T11:18:08.044Z,309.41
2019-03-17T11:19:08.087Z,310.03
2019-03-17T11:20:08.031Z,310.22
2019-03-17T11:21:08.028Z,309.55
2019-03-17T11:22:08.023Z,309.86
2019-03-17T11:23:07.995Z,311.77
2019-03-17T11:24:07.978Z,309.63
2019-03-17T11:25:08.000Z,311.15
2019-03-17T11:26:07.989Z,311.01
2019-03-17T11:27:07.950Z,311.58
2019-03-17T11:28:07.931Z,310.14
2019-03-17T11:29:07.927Z,309.24
2019-03-17T11:30:07.934Z,309.17
2019-03-17T11:31:07.930Z,309.94
2019-03-17T11:32:07.910Z,311.75
2019-03-17T11:33:07.890Z,309.73
2019-03-17T11:34:07.869Z,311.53
2019-03-17T11:35:07.859Z,310.15
2019-03-17T11:36:07.878Z,310.57
2019-03-17T11:37:07.845Z,311.09
2019-03-17T11:38:07.845Z,312.00
2019-03-17T11:39:07.825Z,311.56
2019-03-17T11:40:07.805Z,310.82
2019-03-17T11:41:07.793Z,311.78
2019-03-17T11:42:07.811Z,311.41
2019-03-17T11:43:07.776Z,312.60
2019-03-17T11:44:07.773Z,311.74
2019-03-17T11:45:07.754Z,310.56
2019-03-17T11:46:07.745Z,312.23
2019-03-17T11:47:07.743Z,311.50
2019-03-17T11:48:07.709Z,309.86
2019-03-17T11:49:07.715Z,311.33
2019-03-17T11:50:07.711Z,310.39
2019-03-17T11:51:07.689Z,310.00
2019-03-17T11:52:07.680Z,311.93
2019-03-17T11:53:07.675Z,311.64
2019-03-17T11:54:07.640Z,311.81
2019-03-17T11:55:07.661Z,312.13
2019-03-17T11:56:07.695Z,309.95
2019-03-17T11:57:07.634Z,309.39
2019-03-17T11:58:07.625Z,311.48
2019-03-17T11:59:07.604Z,310.69
2019-03-17T12:00:07.584Z,309.86
2019-03-17T12:01:07.581Z,309.80
2019-03-17T12:02:07.572Z,311.06
2019-03-17T12:03:07.579Z,310.83
2019-03-17T12:04:07.556Z,310.24
2019-03-17T12:05:07.541Z,312.08
2019-03-17T12:06:07.517Z,311.96
2019-03-17T12:07:07.517Z,310.59
2019-03-17T12:08:08.074Z,311.37
2019-03-17T12:09:07.500Z,310.58
2019-03-17T12:10:07.481Z,311.01
2019-03-17T12:11:07.469Z,310.44
2019-03-17T12:12:07.465Z,311.25
2019-03-17T12:13:07.457Z,311.38
2019-03-17T12:14:09.807Z,311.55
2019-03-17T12:15:07.433Z,312.42
2019-03-17T12:16:07.414Z,311.68
2019-03-17T12:17:07.399Z,312.63
2019-03-17T12:18:07.398Z,310.15
2019-03-17T12:19:07.387Z,311.08
2019-03-17T12:20:07.387Z,310.19
2019-03-17T12:21:07.377Z,311.18
2019-03-17T12:22:09.349Z,310.93
2019-03-17T12:23:07.337Z,310.65
2019-03-17T12:24:07.378Z,311.54
2019-03-17T12:25:07.301Z,310.79
2019-03-17T12:26:07.304Z,311.65
2019-03-17T12:27:07.305Z,310.07
2019-03-17T12:28:07.304Z,312.29